Time;durP1;ratioP1;P1;durP2;ratioP2;P2;SDS_P1;SDS_P2;PMS_P1;PMS_P2;Temp;Humidity;BMP_temperature;BMP_pressure;BME280_temperature;BME280_humidity;BME280_pressure;Samples;Min_cycle;Max_cycle;Signal;HPM_P1;HPM_P2
2023/04/17 00:02:00;;;;;;;12.23;8.60;;;;;;;13.61;86.65;98826.06;5053920;28;20581;-68
2023/04/17 00:04:27;;;;;;;12.67;8.97;;;;;;;13.59;87.39;98822.81;5053893;28;20197;-68
2023/04/17 00:06:54;;;;;;;9.27;7.90;;;;;;;13.57;87.96;98819.56;5054253;28;20208;-67
2023/04/17 00:09:20;;;;;;;10.27;8.27;;;;;;;13.54;88.00;98817.34;5054142;28;20241;-70
2023/04/17 00:11:47;;;;;;;8.77;6.63;;;;;;;13.54;87.79;98812.03;5054031;28;20665;-68
2023/04/17 00:14:14;;;;;;;13.80;7.57;;;;;;;13.52;87.92;98810.63;5070286;28;20249;-68
2023/04/17 00:16:42;;;;;;;7.53;6.80;;;;;;;13.43;87.00;98799.47;5073053;28;20196;-68
2023/04/17 00:19:09;;;;;;;7.57;6.10;;;;;;;13.48;86.99;98806.81;5073645;28;20620;-68
2023/04/17 00:21:36;;;;;;;14.43;7.00;;;;;;;13.49;87.22;98817.25;5073961;28;20283;-68
2023/04/17 00:24:03;;;;;;;10.43;7.13;;;;;;;13.52;87.67;98807.97;5071727;28;20726;-68
2023/04/17 00:26:31;;;;;;;8.60;7.33;;;;;;;13.52;86.92;98816.75;5073086;28;20192;-68
2023/04/17 00:28:57;;;;;;;10.33;6.90;;;;;;;13.53;86.37;98821.09;5074004;28;20206;-68
2023/04/17 00:31:24;;;;;;;7.43;6.73;;;;;;;13.53;86.91;98830.94;5072288;28;20257;-67
2023/04/17 00:33:52;;;;;;;10.00;6.63;;;;;;;13.56;87.19;98833.94;5073044;28;20754;-68
2023/04/17 00:36:19;;;;;;;7.43;6.67;;;;;;;13.57;86.91;98832.91;5073215;28;20643;-68
2023/04/17 00:38:46;;;;;;;8.37;7.00;;;;;;;13.56;86.82;98823.25;5073688;28;20750;-67
2023/04/17 00:41:12;;;;;;;9.30;6.40;;;;;;;13.57;86.48;98822.25;5073869;28;20196;-67
2023/04/17 00:43:39;;;;;;;8.47;7.13;;;;;;;13.55;86.96;98821.66;5060434;28;20196;-68
2023/04/17 00:46:07;;;;;;;9.10;6.90;;;;;;;13.50;86.30;98829.53;5052896;28;20667;-68
2023/04/17 00:48:35;;;;;;;7.80;7.00;;;;;;;13.44;87.17;98829.66;5053469;28;20197;-69
2023/04/17 00:51:04;;;;;;;7.67;6.37;;;;;;;13.36;87.86;98814.78;5053545;28;20200;-69
2023/04/17 00:53:31;;;;;;;10.63;7.37;;;;;;;13.41;87.72;98825.59;5052505;28;20209;-68
2023/04/17 00:56:02;;;;;;;11.00;6.53;;;;;;;13.37;88.25;98827.09;5053616;28;20208;-68
2023/04/17 00:58:28;;;;;;;8.40;6.70;;;;;;;13.27;88.13;98829.50;5052764;28;20648;-69
2023/04/17 01:00:55;;;;;;;7.60;6.83;;;;;;;13.24;88.94;98827.28;5052968;28;20662;-69
2023/04/17 01:03:22;;;;;;;7.90;7.10;;;;;;;13.22;88.97;98826.72;5051964;28;20195;-68
2023/04/17 01:05:51;;;;;;;7.30;6.27;;;;;;;13.09;89.13;98815.44;5052761;28;20196;-69
2023/04/17 01:08:22;;;;;;;6.93;6.33;;;;;;;13.05;89.45;98824.91;5052727;28;20436;-68
2023/04/17 01:10:49;;;;;;;8.27;6.60;;;;;;;12.96;90.13;98827.09;5052965;28;20614;-68
2023/04/17 01:13:15;;;;;;;10.17;7.30;;;;;;;12.90;89.64;98833.31;5059761;28;20199;-68
2023/04/17 01:15:43;;;;;;;8.33;6.90;;;;;;;12.88;90.60;98830.06;5072518;28;20758;-68
2023/04/17 01:18:11;;;;;;;9.57;7.23;;;;;;;12.85;90.92;98825.19;5071443;28;20223;-68
2023/04/17 01:20:37;;;;;;;6.80;6.13;;;;;;;12.72;91.16;98804.06;5072425;28;20285;-69
2023/04/17 01:23:04;;;;;;;12.70;6.90;;;;;;;12.87;91.42;98823.09;5072214;28;20592;-68
2023/04/17 01:25:32;;;;;;;8.03;7.33;;;;;;;12.79;90.77;98820.78;5072699;28;20280;-69
2023/04/17 01:27:59;;;;;;;6.73;6.17;;;;;;;12.81;90.86;98825.84;5071921;28;20202;-69
2023/04/17 01:30:26;;;;;;;7.33;6.77;;;;;;;12.79;91.45;98831.44;5072291;28;20662;-68
2023/04/17 01:32:54;;;;;;;8.07;7.03;;;;;;;12.79;91.39;98826.09;5072619;28;20204;-69
2023/04/17 01:35:21;;;;;;;7.20;6.50;;;;;;;12.75;91.16;98829.44;5072377;28;20200;-68
2023/04/17 01:37:47;;;;;;;7.30;6.50;;;;;;;12.65;91.72;98824.63;5071251;28;20230;-68
2023/04/17 01:40:14;;;;;;;8.40;7.60;;;;;;;12.62;91.94;98825.06;5072363;28;20231;-68
2023/04/17 01:42:43;;;;;;;9.53;7.17;;;;;;;12.60;92.07;98819.19;5070419;28;20191;-69
2023/04/17 01:45:10;;;;;;;10.73;6.60;;;;;;;12.53;91.11;98826.44;5072428;28;20618;-69
2023/04/17 01:47:37;;;;;;;7.80;7.20;;;;;;;12.50;91.94;98821.53;5071659;28;20636;-69
2023/04/17 01:50:04;;;;;;;12.23;7.43;;;;;;;12.27;92.51;98789.50;5072381;28;20248;-68
2023/04/17 01:52:31;;;;;;;12.80;8.30;;;;;;;12.42;92.67;98803.22;5071901;28;20249;-68
2023/04/17 01:54:58;;;;;;;7.30;6.40;;;;;;;12.35;91.94;98809.66;5072433;28;20206;-69
2023/04/17 01:57:25;;;;;;;8.60;6.83;;;;;;;12.29;91.77;98808.69;5071900;28;20206;-70
2023/04/17 01:59:53;;;;;;;7.50;6.90;;;;;;;12.27;92.03;98810.78;5071810;28;20222;-69
2023/04/17 02:02:19;;;;;;;10.77;7.00;;;;;;;12.27;92.16;98816.13;5071783;28;20199;-68
2023/04/17 02:04:46;;;;;;;8.17;7.23;;;;;;;12.23;91.79;98811.44;5071874;28;20737;-68
2023/04/17 02:07:13;;;;;;;9.90;7.17;;;;;;;12.26;90.99;98824.31;5071699;28;20198;-68
2023/04/17 02:09:40;;;;;;;10.13;7.03;;;;;;;12.20;91.69;98812.72;5071741;28;20602;-68
2023/04/17 02:12:07;;;;;;;8.00;6.70;;;;;;;12.11;91.50;98808.72;5071688;28;20191;-68
2023/04/17 02:14:33;;;;;;;10.27;7.30;;;;;;;12.10;92.38;98798.28;5070170;28;20696;-69
2023/04/17 02:17:02;;;;;;;10.20;6.87;;;;;;;11.99;91.12;98799.84;5071644;28;20202;-68
2023/04/17 02:19:29;;;;;;;7.87;6.37;;;;;;;11.95;90.41;98801.31;5072296;28;20282;-67
2023/04/17 02:21:55;;;;;;;7.13;6.40;;;;;;;11.71;89.28;98788.09;5071457;28;20623;-68
2023/04/17 02:24:22;;;;;;;5.70;5.17;;;;;;;11.70;89.38;98803.22;5072020;28;20200;-68
2023/04/17 02:26:49;;;;;;;11.07;5.97;;;;;;;11.68;89.86;98805.28;5071636;28;20208;-69
2023/04/17 02:29:16;;;;;;;11.33;6.67;;;;;;;11.74;89.51;98801.75;5072134;28;20290;-68
2023/04/17 02:31:43;;;;;;;5.80;5.30;;;;;;;11.73;88.94;98797.47;5071980;28;20195;-68
2023/04/17 02:34:12;;;;;;;6.23;5.20;;;;;;;11.63;87.93;98796.34;5071878;28;20234;-68
2023/04/17 02:36:38;;;;;;;5.20;4.80;;;;;;;11.52;87.18;98800.53;5071780;28;20390;-68
2023/04/17 02:39:05;;;;;;;6.43;4.77;;;;;;;11.47;87.44;98810.19;5072752;28;20655;-68
2023/04/17 02:41:32;;;;;;;4.50;4.10;;;;;;;11.41;86.39;98805.72;5075899;28;20724;-68
2023/04/17 02:44:00;;;;;;;6.87;4.60;;;;;;;11.43;86.71;98812.44;5073090;28;20213;-69
2023/04/17 02:46:27;;;;;;;9.30;4.60;;;;;;;11.40;86.16;98807.59;5075285;28;20198;-68
2023/04/17 02:48:54;;;;;;;4.73;4.33;;;;;;;11.35;86.58;98802.09;5075448;28;20736;-68
2023/04/17 02:51:22;;;;;;;6.40;3.70;;;;;;;11.42;85.81;98810.81;5075190;28;20202;-68
2023/04/17 02:53:49;;;;;;;4.17;3.60;;;;;;;11.36;85.05;98809.03;5075465;28;20197;-69
2023/04/17 02:56:16;;;;;;;4.27;3.30;;;;;;;11.34;84.51;98815.59;5075233;28;20663;-69
2023/04/17 02:58:44;;;;;;;4.10;3.37;;;;;;;11.27;84.76;98818.31;5075155;28;20312;-69
2023/04/17 03:01:11;;;;;;;5.97;3.97;;;;;;;11.29;85.29;98821.56;5075501;28;20205;-69
2023/04/17 03:03:40;;;;;;;5.27;3.97;;;;;;;11.31;85.11;98803.53;5075497;28;20191;-68
2023/04/17 03:06:08;;;;;;;4.20;3.53;;;;;;;11.46;85.00;98822.66;5075369;28;20691;-68
2023/04/17 03:08:37;;;;;;;4.40;4.10;;;;;;;11.50;84.29;98815.03;5075238;28;20232;-69
2023/04/17 03:11:04;;;;;;;3.83;3.60;;;;;;;11.59;83.90;98814.56;5075215;28;20294;-69
2023/04/17 03:13:34;;;;;;;7.17;4.20;;;;;;;11.64;84.33;98820.06;5064121;28;20206;-68
2023/04/17 03:16:02;;;;;;;10.07;4.13;;;;;;;11.64;84.22;98809.41;5054960;28;20616;-69
2023/04/17 03:18:29;;;;;;;4.77;3.70;;;;;;;11.72;84.22;98819.78;5055165;28;20194;-69
2023/04/17 03:20:55;;;;;;;6.83;4.40;;;;;;;11.74;84.60;98824.88;5054790;28;20195;-69
2023/04/17 03:23:22;;;;;;;5.17;4.77;;;;;;;11.73;84.42;98823.25;5055023;28;20199;-70
2023/04/17 03:25:50;;;;;;;6.43;4.67;;;;;;;11.63;84.94;98807.78;5055035;28;20271;-69
2023/04/17 03:28:17;;;;;;;6.37;4.50;;;;;;;11.62;85.04;98806.16;5054897;28;20195;-68
2023/04/17 03:30:44;;;;;;;6.43;4.23;;;;;;;11.52;85.10;98786.41;5054738;28;20203;-68
2023/04/17 03:33:10;;;;;;;8.40;5.30;;;;;;;11.61;86.27;98795.75;5054883;28;20255;-68
2023/04/17 03:35:37;;;;;;;14.83;5.57;;;;;;;11.67;84.90;98808.97;5054882;28;20628;-70
2023/04/17 03:38:04;;;;;;;10.57;5.93;;;;;;;11.59;85.08;98806.56;5054607;28;20226;-69
2023/04/17 03:40:31;;;;;;;6.37;5.00;;;;;;;11.56;85.33;98803.53;5070619;28;20217;-68
2023/04/17 03:42:59;;;;;;;6.60;5.47;;;;;;;11.57;85.23;98808.66;5070258;28;20194;-69
2023/04/17 03:45:26;;;;;;;10.77;5.93;;;;;;;11.53;85.65;98818.09;5074316;28;20200;-67
2023/04/17 03:47:52;;;;;;;9.23;6.47;;;;;;;11.53;86.46;98807.47;5074636;28;20201;-68
2023/04/17 03:50:20;;;;;;;10.03;6.50;;;;;;;11.51;86.97;98812.16;5073933;28;20197;-68
2023/04/17 03:52:46;;;;;;;13.37;6.57;;;;;;;11.45;86.80;98802.41;5073968;28;20671;-68
2023/04/17 03:55:13;;;;;;;6.80;5.73;;;;;;;11.54;87.18;98811.75;5074538;28;20190;-67
2023/04/17 03:57:40;;;;;;;8.23;6.13;;;;;;;11.54;85.51;98817.06;5074379;28;20256;-67
2023/04/17 04:00:10;;;;;;;8.07;5.63;;;;;;;11.55;86.42;98813.34;5073255;28;20261;-67
2023/04/17 04:02:37;;;;;;;6.80;5.10;;;;;;;11.63;85.57;98826.41;5074618;28;20630;-67
2023/04/17 04:05:04;;;;;;;5.70;5.10;;;;;;;11.56;83.83;98822.16;5074017;28;20670;-67
2023/04/17 04:07:31;;;;;;;7.40;4.60;;;;;;;11.54;82.56;98824.22;5074219;28;20198;-67
2023/04/17 04:09:57;;;;;;;4.80;4.40;;;;;;;11.51;82.41;98822.81;5073816;28;20634;-68
2023/04/17 04:12:24;;;;;;;6.17;4.50;;;;;;;11.46;82.71;98820.00;5070375;28;20658;-68
2023/04/17 04:14:51;;;;;;;8.90;5.03;;;;;;;11.48;83.04;98820.59;5073035;28;20631;-68
2023/04/17 04:17:19;;;;;;;4.97;4.53;;;;;;;11.48;82.92;98833.06;5073956;28;20202;-69
2023/04/17 04:19:46;;;;;;;11.03;4.73;;;;;;;11.42;82.57;98820.63;5074003;28;20294;-68
2023/04/17 04:22:13;;;;;;;5.23;4.30;;;;;;;11.46;82.67;98838.59;5072667;28;20197;-68
2023/04/17 04:24:40;;;;;;;4.73;4.30;;;;;;;11.48;83.19;98838.41;5072795;28;20205;-69
2023/04/17 04:27:07;;;;;;;4.73;4.27;;;;;;;11.57;83.01;98839.75;5073913;28;20195;-69
2023/04/17 04:29:36;;;;;;;6.60;5.00;;;;;;;11.65;83.40;98847.47;5073843;28;20198;-69
2023/04/17 04:32:03;;;;;;;5.43;4.77;;;;;;;11.77;83.47;98851.88;5073881;28;20570;-69
2023/04/17 04:34:31;;;;;;;6.23;4.43;;;;;;;11.88;82.60;98859.13;5073716;28;20691;-68
2023/04/17 04:36:58;;;;;;;6.40;5.67;;;;;;;12.02;82.42;98855.31;5073831;28;20205;-70
2023/04/17 04:39:25;;;;;;;12.67;5.43;;;;;;;12.14;82.45;98850.06;5072025;28;20214;-69
2023/04/17 04:41:52;;;;;;;6.43;5.93;;;;;;;12.34;81.92;98858.66;5072904;28;20667;-69
2023/04/17 04:44:19;;;;;;;9.10;6.17;;;;;;;12.47;82.03;98864.63;5070967;28;20244;-69
2023/04/17 04:46:46;;;;;;;11.10;6.43;;;;;;;12.51;82.08;98859.66;5073268;28;20202;-68
2023/04/17 04:49:13;;;;;;;8.13;5.80;;;;;;;12.72;82.66;98869.84;5072951;28;20635;-69
2023/04/17 04:51:41;;;;;;;10.47;6.53;;;;;;;12.78;82.63;98866.31;5073119;28;20192;-67
2023/04/17 04:54:08;;;;;;;11.13;6.50;;;;;;;12.77;82.96;98861.97;5071748;28;20667;-68
2023/04/17 04:56:35;;;;;;;10.47;7.30;;;;;;;12.95;83.81;98867.28;5072822;28;20727;-69
2023/04/17 04:59:02;;;;;;;18.07;9.70;;;;;;;13.05;84.06;98862.25;5072647;28;20240;-69
2023/04/17 05:01:29;;;;;;;10.43;8.93;;;;;;;13.05;84.64;98855.06;5071908;28;20210;-68
2023/04/17 05:03:55;;;;;;;14.20;9.10;;;;;;;13.20;84.89;98870.66;5072902;28;20204;-68
2023/04/17 05:06:22;;;;;;;11.27;10.17;;;;;;;13.24;86.25;98864.63;5073003;28;20253;-69
2023/04/17 05:08:51;;;;;;;14.83;11.00;;;;;;;13.24;86.66;98863.81;5072704;28;20199;-67
2023/04/17 05:11:18;;;;;;;18.27;11.47;;;;;;;13.32;87.51;98869.63;5072173;28;20246;-69
2023/04/17 05:13:44;;;;;;;15.07;12.00;;;;;;;13.45;87.61;98868.63;5052247;28;20739;-71
2023/04/17 05:16:11;;;;;;;17.23;12.70;;;;;;;13.53;86.66;98871.78;5052446;28;20748;-67
2023/04/17 05:18:38;;;;;;;19.77;13.03;;;;;;;13.56;87.52;98881.97;5052844;28;20200;-68
2023/04/17 05:21:04;;;;;;;20.93;13.53;;;;;;;13.70;88.48;98882.56;5052423;28;20364;-67
2023/04/17 05:23:31;;;;;;;19.50;12.60;;;;;;;13.94;87.44;98886.88;5052577;28;20247;-67
2023/04/17 05:25:59;;;;;;;19.90;12.83;;;;;;;14.15;86.14;98887.13;5052272;28;20569;-68
2023/04/17 05:28:28;;;;;;;15.53;13.83;;;;;;;14.39;85.16;98880.75;5052709;28;20235;-67
2023/04/17 05:30:55;;;;;;;16.97;13.33;;;;;;;14.48;84.79;98873.97;5052316;28;20235;-68
2023/04/17 05:33:22;;;;;;;17.20;13.60;;;;;;;14.55;84.41;98871.97;5052626;28;20266;-68
2023/04/17 05:35:49;;;;;;;38.17;15.30;;;;;;;14.64;84.52;98865.22;5052164;28;20197;-68
2023/04/17 05:38:16;;;;;;;36.23;16.27;;;;;;;14.83;85.22;98861.31;5051957;28;20248;-68
2023/04/17 05:40:43;;;;;;;21.63;15.23;;;;;;;14.95;84.40;98856.72;5069871;28;20220;-67
2023/04/17 05:43:12;;;;;;;21.00;13.63;;;;;;;14.82;84.04;98824.94;5069387;28;20609;-67
2023/04/17 05:45:40;;;;;;;38.43;17.13;;;;;;;15.18;83.79;98851.28;5071901;28;20658;-68
2023/04/17 05:48:06;;;;;;;17.13;14.50;;;;;;;15.46;81.74;98858.47;5071617;28;20657;-68
2023/04/17 05:50:33;;;;;;;21.47;14.70;;;;;;;15.60;80.45;98863.25;5070657;28;20345;-68
2023/04/17 05:53:00;;;;;;;20.60;13.87;;;;;;;15.84;80.71;98863.88;5072094;28;20188;-68
2023/04/17 05:55:27;;;;;;;22.10;14.30;;;;;;;15.88;78.78;98849.78;5072108;28;20188;-69
2023/04/17 05:57:54;;;;;;;17.70;13.57;;;;;;;16.13;77.32;98875.31;5072359;28;20200;-68
2023/04/17 06:00:23;;;;;;;22.80;13.37;;;;;;;16.23;76.42;98886.97;5071582;28;20651;-69
2023/04/17 06:02:50;;;;;;;21.70;12.70;;;;;;;16.35;74.26;98905.63;5072074;28;20196;-69
2023/04/17 06:05:17;;;;;;;13.90;11.97;;;;;;;16.31;73.90;98902.63;5071878;28;20282;-69
2023/04/17 06:07:44;;;;;;;14.40;12.63;;;;;;;16.24;73.77;98869.00;5072051;28;20649;-69
2023/04/17 06:10:11;;;;;;;16.27;12.37;;;;;;;16.47;73.95;98898.31;5071880;28;20566;-69
2023/04/17 06:12:38;;;;;;;17.73;11.57;;;;;;;16.52;73.33;98895.69;5069781;28;20202;-69
2023/04/17 06:15:07;;;;;;;24.70;11.87;;;;;;;16.45;74.12;98889.72;5071268;28;20196;-69
2023/04/17 06:17:36;;;;;;;14.77;12.30;;;;;;;16.55;74.18;98889.84;5071554;28;20760;-69
2023/04/17 06:20:08;;;;;;;14.97;13.37;;;;;;;16.57;73.39;98893.09;5071538;28;20311;-68
2023/04/17 06:22:35;;;;;;;14.90;12.23;;;;;;;16.64;73.64;98888.34;5071937;28;20277;-68
2023/04/17 06:25:02;;;;;;;16.60;13.30;;;;;;;16.83;73.03;98908.44;5071405;28;20562;-68
2023/04/17 06:27:29;;;;;;;13.67;12.23;;;;;;;16.96;71.87;98918.78;5071573;28;20192;-68
2023/04/17 06:29:56;;;;;;;12.17;10.97;;;;;;;17.15;71.46;98928.94;5071671;28;20203;-68
2023/04/17 06:32:22;;;;;;;21.83;13.47;;;;;;;17.56;71.53;98925.63;5071806;28;20257;-68
2023/04/17 06:34:51;;;;;;;19.70;12.07;;;;;;;18.12;68.43;98934.97;5071382;28;20203;-68
2023/04/17 06:37:17;;;;;;;14.33;11.43;;;;;;;18.73;66.44;98947.75;5071619;28;20677;-68
2023/04/17 06:39:44;;;;;;;12.47;11.17;;;;;;;18.82;64.08;98951.56;5071718;28;20222;-68
2023/04/17 06:42:11;;;;;;;15.00;11.33;;;;;;;19.14;63.55;98960.31;5069453;28;20249;-68
2023/04/17 06:44:38;;;;;;;13.70;11.50;;;;;;;19.22;61.92;98962.50;5070347;28;20199;-68
2023/04/17 06:47:05;;;;;;;15.87;11.20;;;;;;;19.16;63.22;98958.19;5071432;28;20259;-68
2023/04/17 06:49:32;;;;;;;5.33;4.83;;;;;;;19.26;69.83;98932.13;5070829;28;20240;-72
2023/04/17 06:52:00;;;;;;;5.47;5.00;;;;;;;19.67;72.28;98933.00;5052214;28;20568;-70
2023/04/17 06:54:27;;;;;;;11.73;7.17;;;;;;;20.10;71.94;98932.50;5051402;28;20635;-69
2023/04/17 06:56:54;;;;;;;8.00;7.20;;;;;;;20.51;68.19;98950.25;5051523;28;20200;-70
2023/04/17 06:59:21;;;;;;;14.47;10.07;;;;;;;20.75;57.92;98978.28;5051393;28;20193;-66
2023/04/17 07:01:48;;;;;;;9.40;8.07;;;;;;;20.67;56.39;98980.72;5051450;28;20224;-68
2023/04/17 07:04:16;;;;;;;9.43;8.60;;;;;;;20.47;55.80;98976.16;5051268;28;20578;-68
2023/04/17 07:06:43;;;;;;;12.77;8.90;;;;;;;20.26;56.88;98977.28;5051474;28;20700;-68
2023/04/17 07:09:11;;;;;;;15.10;8.70;;;;;;;19.98;57.76;98967.78;5051473;28;20294;-71
2023/04/17 07:11:38;;;;;;;12.00;8.57;;;;;;;19.78;58.97;98961.59;5066020;28;20617;-69
2023/04/17 07:14:05;;;;;;;9.93;7.67;;;;;;;19.61;58.16;98969.09;5070812;28;20292;-73
2023/04/17 07:16:31;;;;;;;16.00;9.07;;;;;;;19.37;58.73;98960.72;5057898;28;20196;-69
2023/04/17 07:18:58;;;;;;;10.07;7.97;;;;;;;19.19;59.84;98949.59;5051402;28;20203;-73
2023/04/17 07:21:25;;;;;;;9.80;7.07;;;;;;;19.08;60.08;98964.06;5051872;28;20649;-70
2023/04/17 07:23:52;;;;;;;8.07;7.03;;;;;;;18.76;61.87;98964.19;5051371;28;20195;-69
2023/04/17 07:26:21;;;;;;;9.43;7.40;;;;;;;18.70;63.25;98965.22;5052232;28;20224;-69
2023/04/17 07:28:48;;;;;;;7.33;6.50;;;;;;;18.49;63.80;98965.38;5055012;28;20259;-65
2023/04/17 07:31:14;;;;;;;8.33;7.43;;;;;;;18.31;65.32;98949.63;5054879;28;20194;-63
2023/04/17 07:33:41;;;;;;;7.77;6.97;;;;;;;17.74;66.52;98959.38;5055012;28;20188;-63
2023/04/17 07:36:10;;;;;;;8.23;7.13;;;;;;;17.15;69.88;98954.97;5054820;28;20196;-64
2023/04/17 07:38:36;;;;;;;7.60;6.73;;;;;;;17.21;69.90;98952.09;5054850;28;20232;-65
2023/04/17 07:41:04;;;;;;;8.03;6.77;;;;;;;17.32;69.23;98951.13;5074441;28;20277;-65
2023/04/17 07:43:32;;;;;;;9.20;7.10;;;;;;;17.33;69.56;98951.94;5074697;28;20206;-64
2023/04/17 07:45:58;;;;;;;8.23;7.53;;;;;;;17.16;71.39;98945.84;5065742;28;20193;-65
2023/04/17 07:48:26;;;;;;;10.27;7.40;;;;;;;16.69;73.98;98944.72;5054728;28;20192;-65
2023/04/17 07:50:52;;;;;;;10.40;7.50;;;;;;;16.77;73.78;98953.16;5055392;28;20193;-65
2023/04/17 07:53:21;;;;;;;8.40;7.40;;;;;;;16.78;73.55;98953.97;5054189;28;20226;-66
2023/04/17 07:55:47;;;;;;;8.13;7.37;;;;;;;16.66;73.94;98953.28;5054136;28;20665;-66
2023/04/17 07:58:15;;;;;;;9.50;8.60;;;;;;;16.61;74.52;98955.91;5054358;28;20246;-66
2023/04/17 08:00:43;;;;;;;10.57;8.57;;;;;;;16.40;75.62;98932.50;5055186;28;20323;-68
2023/04/17 08:03:10;;;;;;;10.93;8.80;;;;;;;16.44;76.25;98936.34;5054000;28;20197;-67
2023/04/17 08:05:36;;;;;;;9.57;8.53;;;;;;;16.35;76.57;98948.50;5053885;28;20254;-67
2023/04/17 08:08:04;;;;;;;12.17;8.77;;;;;;;16.36;76.96;98944.78;5053877;28;20188;-66
2023/04/17 08:10:31;;;;;;;9.90;8.90;;;;;;;16.47;76.97;98946.56;5053991;28;20197;-65
2023/04/17 08:12:58;;;;;;;9.77;8.90;;;;;;;16.28;76.92;98943.31;5054196;28;20254;-66
2023/04/17 08:15:25;;;;;;;10.17;8.27;;;;;;;16.24;77.39;98933.34;5053624;28;20258;-67
2023/04/17 08:17:53;;;;;;;9.17;7.63;;;;;;;16.37;77.74;98935.69;5054067;28;20204;-66
2023/04/17 08:20:19;;;;;;;9.30;8.47;;;;;;;16.42;76.82;98935.78;5053590;28;20671;-71
2023/04/17 08:22:47;;;;;;;9.57;8.77;;;;;;;16.39;77.31;98939.75;5062511;28;20191;-67
2023/04/17 08:25:14;;;;;;;9.30;8.60;;;;;;;16.49;78.11;98939.13;5073100;28;20196;-67
2023/04/17 08:27:42;;;;;;;10.20;9.30;;;;;;;16.56;77.33;98939.72;5071807;28;20555;-67
2023/04/17 08:30:11;;;;;;;10.17;9.23;;;;;;;16.33;78.97;98929.19;5073053;28;20191;-65
2023/04/17 08:32:38;;;;;;;12.17;10.03;;;;;;;16.30;79.41;98935.03;5065512;28;20254;-66
2023/04/17 08:35:08;;;;;;;13.30;10.13;;;;;;;16.21;80.40;98936.53;5073458;28;20279;-65
2023/04/17 08:37:35;;;;;;;9.67;8.97;;;;;;;16.33;80.30;98923.84;5073145;28;20227;-64
2023/04/17 08:40:03;;;;;;;10.33;9.60;;;;;;;16.26;80.05;98923.19;5073322;28;20206;-67
2023/04/17 08:42:34;;;;;;;17.37;8.47;;;;;;;16.48;84.15;98926.75;5073438;28;20669;-69
2023/04/17 08:45:04;;;;;;;32.57;9.73;;;;;;;17.09;83.68;98929.13;5072036;28;20191;-68
2023/04/17 08:47:31;;;;;;;29.20;8.07;;;;;;;17.60;80.33;98936.69;5073582;28;20247;-67
2023/04/17 08:49:57;;;;;;;17.17;7.77;;;;;;;18.05;76.56;98945.94;5072890;28;20188;-66
2023/04/17 08:52:25;;;;;;;20.90;8.43;;;;;;;18.46;76.10;98947.06;5073318;28;20250;-66
2023/04/17 08:54:52;;;;;;;10.20;9.30;;;;;;;18.63;71.26;98955.78;5073351;28;20195;-66
2023/04/17 08:57:19;;;;;;;9.50;8.60;;;;;;;18.40;71.83;98950.78;5073109;28;20253;-67
2023/04/17 08:59:45;;;;;;;9.50;8.50;;;;;;;18.28;71.27;98958.19;5072622;28;20629;-66
2023/04/17 09:02:12;;;;;;;10.30;9.43;;;;;;;18.16;71.70;98946.81;5072810;28;20293;-68
2023/04/17 09:04:41;;;;;;;10.27;8.60;;;;;;;17.99;72.68;98949.66;5070218;28;20197;-67
2023/04/17 09:07:09;;;;;;;9.47;8.57;;;;;;;17.91;73.12;98954.69;5072893;28;20203;-67
2023/04/17 09:09:51;;;;;;;9.70;8.93;;;;;;;17.78;73.70;98960.50;5072873;28;20190;-68
2023/04/17 09:12:18;;;;;;;8.40;7.83;;;;;;;17.51;75.19;98948.97;5072012;28;20207;-65
2023/04/17 09:14:45;;;;;;;8.43;7.73;;;;;;;17.47;75.71;98958.59;5072830;28;20620;-65
2023/04/17 09:17:13;;;;;;;9.53;8.63;;;;;;;17.42;75.86;98953.97;5072497;28;20661;-67
2023/04/17 09:20:06;;;;;;;8.23;7.63;;;;;;;17.22;77.07;98951.03;5072596;28;20200;-70
2023/04/17 09:22:35;;;;;;;9.23;8.53;;;;;;;17.36;77.66;98952.25;5072084;28;20208;-66
2023/04/17 09:25:04;;;;;;;11.10;9.83;;;;;;;17.23;77.77;98951.84;5072314;28;20279;-66
2023/04/17 09:27:31;;;;;;;11.33;10.30;;;;;;;17.05;78.55;98949.47;5071522;28;20253;-65
2023/04/17 09:30:02;;;;;;;10.40;9.43;;;;;;;17.21;78.99;98948.59;5068279;28;20203;-67
2023/04/17 09:32:31;;;;;;;10.97;9.93;;;;;;;17.39;78.00;98950.97;5070576;28;20267;-67
2023/04/17 09:34:58;;;;;;;10.63;9.90;;;;;;;17.59;77.68;98951.16;5052652;28;20195;-66
2023/04/17 09:37:26;;;;;;;10.63;9.73;;;;;;;17.77;76.24;98953.50;5051470;28;20220;-65
2023/04/17 09:40:00;;;;;;;13.07;11.87;;;;;;;17.86;76.35;98951.97;5062441;28;20195;-65
2023/04/17 09:42:28;;;;;;;11.37;10.53;;;;;;;17.92;75.17;98961.72;5070409;28;20215;-67
2023/04/17 09:44:56;;;;;;;11.17;10.23;;;;;;;17.85;76.16;98956.50;5071809;28;20196;-66
2023/04/17 09:47:23;;;;;;;11.80;11.00;;;;;;;17.96;75.83;98952.03;5071590;28;20598;-66
2023/04/17 09:49:52;;;;;;;12.87;10.83;;;;;;;17.95;74.47;98955.78;5071066;28;20197;-66
2023/04/17 09:52:22;;;;;;;11.10;10.23;;;;;;;17.94;75.36;98948.81;5071631;28;20195;-66
2023/04/17 09:54:50;;;;;;;10.77;9.97;;;;;;;18.11;74.61;98947.63;5072204;28;20199;-67
2023/04/17 09:57:17;;;;;;;10.47;9.87;;;;;;;18.27;73.19;98953.91;5072090;28;20192;-67
2023/04/17 09:59:47;;;;;;;11.20;10.20;;;;;;;18.39;73.76;98951.88;5071901;28;20657;-67
2023/04/17 10:02:16;;;;;;;11.33;10.53;;;;;;;18.42;72.89;98940.59;5072084;28;20224;-66
2023/04/17 10:04:44;;;;;;;11.67;10.60;;;;;;;18.43;73.08;98947.59;5056749;28;20197;-67
2023/04/17 10:07:16;;;;;;;11.10;10.10;;;;;;;18.40;72.59;98948.09;5050453;28;20201;-66
2023/04/17 10:09:44;;;;;;;11.47;10.67;;;;;;;18.34;72.26;98949.16;5052114;28;20198;-67
2023/04/17 10:12:13;;;;;;;10.13;9.63;;;;;;;18.25;72.73;98929.97;5051514;28;20562;-67
2023/04/17 10:14:45;;;;;;;11.17;10.47;;;;;;;18.35;73.30;98937.31;5051563;28;20194;-67
2023/04/17 10:17:30;;;;;;;11.60;10.40;;;;;;;18.39;73.40;98933.88;5051996;28;20273;-67
2023/04/17 10:20:38;;;;;;;11.33;10.63;;;;;;;18.44;73.41;98928.50;5050791;28;20208;-68
2023/04/17 10:23:28;;;;;;;12.13;11.10;;;;;;;18.52;73.19;98935.25;5051811;28;20205;-66
2023/04/17 10:26:39;;;;;;;11.67;11.03;;;;;;;18.55;73.36;98930.19;5051431;28;20307;-66
2023/04/17 10:29:07;;;;;;;11.70;10.97;;;;;;;18.46;74.60;98936.31;5050392;28;20289;-66
2023/04/17 10:32:06;;;;;;;13.70;12.60;;;;;;;18.26;76.47;98926.19;5051125;28;20201;-68
2023/04/17 10:34:38;;;;;;;14.47;12.97;;;;;;;18.23;75.60;98939.34;5063164;28;20621;-67
2023/04/17 10:37:05;;;;;;;12.57;11.30;;;;;;;18.24;76.00;98925.66;5071464;28;20184;-67
2023/04/17 10:39:55;;;;;;;12.43;11.50;;;;;;;18.26;74.49;98920.03;5071300;28;20185;-66
2023/04/17 10:42:24;;;;;;;13.17;12.37;;;;;;;18.23;77.66;98920.53;5062537;28;20204;-66
2023/04/17 10:44:57;;;;;;;17.13;15.43;;;;;;;18.25;77.16;98908.44;5051554;28;20566;-66
2023/04/17 10:47:30;;;;;;;16.33;14.80;;;;;;;18.18;78.89;98917.81;5051715;28;20193;-66
2023/04/17 10:49:59;;;;;;;16.77;15.37;;;;;;;17.97;78.48;98916.06;5051674;28;20250;-67
2023/04/17 10:52:36;;;;;;;16.77;15.37;;;;;;;17.63;80.97;98909.31;5050327;28;20262;-66
2023/04/17 10:55:05;;;;;;;18.33;16.70;;;;;;;16.88;84.30;98900.44;5051265;28;20200;-66
2023/04/17 10:57:56;;;;;;;19.33;17.57;;;;;;;16.74;86.58;98902.69;5051047;28;20207;-66
2023/04/17 11:00:34;;;;;;;20.93;19.13;;;;;;;16.68;88.13;98905.56;5051557;28;20200;-67
2023/04/17 11:03:02;;;;;;;21.37;19.23;;;;;;;16.44;88.70;98896.13;5069294;28;20208;-67
2023/04/17 11:05:31;;;;;;;21.07;19.20;;;;;;;16.39;89.36;98896.84;5055226;28;20216;-67
2023/04/17 11:07:59;;;;;;;22.50;20.20;;;;;;;16.30;90.99;98876.09;5054692;28;20204;-67
2023/04/17 11:10:26;;;;;;;20.50;18.70;;;;;;;16.55;90.93;98895.22;5054930;28;20242;-67
2023/04/17 11:12:55;;;;;;;21.53;19.43;;;;;;;16.46;90.35;98878.72;5053562;28;20188;-67
2023/04/17 11:15:29;;;;;;;21.70;19.67;;;;;;;16.60;91.28;98888.03;5054877;28;20189;-67
2023/04/17 11:17:58;;;;;;;22.07;19.77;;;;;;;16.67;91.21;98882.50;5054796;28;20199;-67
2023/04/17 11:20:28;;;;;;;23.37;21.00;;;;;;;16.56;91.68;98891.47;5055302;28;20576;-67
2023/04/17 11:23:01;;;;;;;21.13;18.87;;;;;;;16.51;91.62;98878.00;5053350;28;20326;-67
2023/04/17 11:25:32;;;;;;;21.83;19.37;;;;;;;16.64;91.73;98880.31;5054775;28;20231;-67
2023/04/17 11:28:01;;;;;;;23.50;21.13;;;;;;;16.79;91.11;98875.13;5054308;28;20585;-67
2023/04/17 11:30:30;;;;;;;20.87;18.87;;;;;;;16.91;91.87;98881.97;5054521;28;20269;-67
2023/04/17 11:32:59;;;;;;;19.97;18.07;;;;;;;16.88;90.94;98868.25;5054351;28;20254;-67